createdAt,value
2022-10-24T00:01:45.336Z,55.08
2022-10-24T00:04:29.895Z,55.54
2022-10-24T00:06:58.162Z,55.76
2022-10-24T00:09:26.526Z,55.62
2022-10-24T00:11:54.861Z,55.79
2022-10-24T00:14:23.605Z,55.95
2022-10-24T00:16:51.674Z,55.93
2022-10-24T00:19:19.951Z,55.99
2022-10-24T00:21:50.006Z,55.86
2022-10-24T00:24:20.012Z,55.84
2022-10-24T00:26:48.266Z,56.18
2022-10-24T00:29:26.009Z,55.90
2022-10-24T00:31:54.639Z,55.85
2022-10-24T00:34:23.114Z,56.18
2022-10-24T00:36:54.961Z,56.29
2022-10-24T00:39:23.172Z,56.49
2022-10-24T00:41:54.249Z,56.32
2022-10-24T00:44:24.800Z,56.80
2022-10-24T00:46:56.517Z,56.85
2022-10-24T00:49:30.528Z,57.21
2022-10-24T00:52:08.551Z,57.57
2022-10-24T00:54:39.245Z,57.87
2022-10-24T00:57:18.800Z,58.07
2022-10-24T00:59:51.563Z,58.17
2022-10-24T01:02:54.468Z,58.43
2022-10-24T01:05:33.423Z,58.95
2022-10-24T01:08:14.495Z,59.11
2022-10-24T01:10:52.784Z,59.59
2022-10-24T01:13:33.902Z,60.15
2022-10-24T01:16:13.114Z,60.23
2022-10-24T01:18:51.750Z,60.47
2022-10-24T01:21:34.058Z,60.50
2022-10-24T01:24:27.339Z,60.59
2022-10-24T01:29:56.078Z,61.13
2022-10-24T01:32:35.280Z,60.95
2022-10-24T01:35:09.313Z,60.79
2022-10-24T01:37:44.500Z,60.95
2022-10-24T01:43:18.479Z,60.68
2022-10-24T01:46:06.827Z,61.13
2022-10-24T01:48:42.618Z,61.25
2022-10-24T01:54:14.055Z,61.57
2022-10-24T01:56:45.914Z,61.19
2022-10-24T02:02:59.473Z,61.46
2022-10-24T02:08:24.059Z,61.38
2022-10-24T02:11:02.294Z,61.60
2022-10-24T02:13:37.371Z,61.39
2022-10-24T02:16:06.731Z,61.72
2022-10-24T02:21:52.326Z,61.90
2022-10-24T02:27:12.536Z,61.94
2022-10-24T02:29:45.763Z,62.02
2022-10-24T02:32:21.050Z,61.59
2022-10-24T02:34:52.002Z,62.07
2022-10-24T02:37:21.590Z,62.10
2022-10-24T02:39:51.636Z,62.46
2022-10-24T02:42:24.553Z,62.37
2022-10-24T02:44:54.022Z,62.36
2022-10-24T02:47:25.249Z,62.39
2022-10-24T02:49:55.781Z,62.20
2022-10-24T02:52:27.528Z,61.96
2022-10-24T02:54:58.174Z,61.78
2022-10-24T02:57:27.054Z,61.93
2022-10-24T03:02:43.054Z,61.94
2022-10-24T03:05:14.707Z,62.11
2022-10-24T03:07:46.372Z,62.34
2022-10-24T03:10:16.153Z,61.90
2022-10-24T03:12:46.346Z,61.89
2022-10-24T03:15:14.755Z,62.04
2022-10-24T03:17:59.170Z,62.17
2022-10-24T03:20:30.004Z,61.93
2022-10-24T03:23:06.094Z,62.10
2022-10-24T03:29:11.176Z,62.15
2022-10-24T03:31:45.076Z,62.39
2022-10-24T03:34:14.163Z,61.84
2022-10-24T03:36:45.319Z,61.94
2022-10-24T03:39:13.775Z,61.54
2022-10-24T03:41:43.060Z,61.60
2022-10-24T03:44:58.914Z,61.68
2022-10-24T03:47:43.577Z,61.56
2022-10-24T03:50:38.013Z,61.44
2022-10-24T03:56:32.813Z,61.72
2022-10-24T03:59:42.357Z,61.49
2022-10-24T04:02:13.229Z,61.61
2022-10-24T04:08:01.910Z,61.61
2022-10-24T04:10:47.686Z,61.40
2022-10-24T04:13:52.679Z,61.41
2022-10-24T04:19:17.560Z,61.23
2022-10-24T04:21:57.970Z,61.19
2022-10-24T04:24:41.058Z,61.24
2022-10-24T04:27:15.191Z,61.07
2022-10-24T04:30:04.446Z,61.03
2022-10-24T04:32:38.942Z,60.91
2022-10-24T04:35:11.319Z,60.88
2022-10-24T04:38:01.696Z,60.46
2022-10-24T04:40:31.046Z,60.65
2022-10-24T04:42:59.882Z,60.67
2022-10-24T04:45:33.340Z,60.49
2022-10-24T04:48:04.348Z,60.20
2022-10-24T04:50:38.359Z,60.42
2022-10-24T04:53:07.839Z,60.58
2022-10-24T04:58:06.930Z,60.25
2022-10-24T05:00:35.534Z,60.42
2022-10-24T05:03:05.209Z,60.22
2022-10-24T05:05:36.973Z,60.57
2022-10-24T05:08:05.351Z,60.14
2022-10-24T05:10:33.946Z,60.31
2022-10-24T05:13:02.476Z,60.33
2022-10-24T05:15:31.273Z,60.12
2022-10-24T05:18:01.641Z,60.40
2022-10-24T05:20:30.734Z,60.17
2022-10-24T05:23:01.663Z,59.85
2022-10-24T05:25:29.988Z,60.11
2022-10-24T05:28:02.647Z,60.28
2022-10-24T05:30:31.378Z,60.06
2022-10-24T05:33:02.958Z,59.79
2022-10-24T05:35:31.172Z,60.09
2022-10-24T05:38:10.061Z,60.01
2022-10-24T05:40:41.727Z,59.85
2022-10-24T05:43:10.689Z,59.94
2022-10-24T05:45:40.762Z,59.64
2022-10-24T05:48:09.733Z,59.99
2022-10-24T05:50:38.609Z,59.83
2022-10-24T05:53:09.012Z,60.23
2022-10-24T05:55:38.364Z,60.21
2022-10-24T05:58:08.298Z,60.23
2022-10-24T06:00:37.158Z,60.15
2022-10-24T06:03:20.739Z,60.05
2022-10-24T06:06:00.458Z,60.35
2022-10-24T06:08:31.074Z,60.09
2022-10-24T06:11:00.149Z,60.08
2022-10-24T06:13:33.819Z,59.94
2022-10-24T06:16:06.658Z,59.92
2022-10-24T06:18:35.187Z,60.08
2022-10-24T06:21:05.750Z,59.97
2022-10-24T06:23:37.521Z,60.13
2022-10-24T06:26:11.111Z,60.12
2022-10-24T06:28:41.681Z,59.94
2022-10-24T06:31:11.362Z,60.23
2022-10-24T06:33:40.339Z,60.26
2022-10-24T06:36:10.833Z,60.30
2022-10-24T06:38:40.813Z,60.29
2022-10-24T06:41:10.596Z,60.31
2022-10-24T06:43:40.844Z,60.25
2022-10-24T06:46:10.117Z,60.48
2022-10-24T06:48:38.742Z,60.41
2022-10-24T06:51:08.110Z,60.20
2022-10-24T06:53:37.667Z,60.42
2022-10-24T06:56:08.801Z,60.08
2022-10-24T06:58:40.023Z,60.33
2022-10-24T07:01:13.321Z,60.37
2022-10-24T07:03:41.815Z,60.39
2022-10-24T07:06:12.753Z,60.40
2022-10-24T07:08:41.096Z,60.65
2022-10-24T07:11:13.779Z,60.70
2022-10-24T07:13:42.495Z,60.26
2022-10-24T07:16:10.942Z,60.59
2022-10-24T07:18:40.220Z,60.65
2022-10-24T07:21:11.084Z,60.40
2022-10-24T07:23:41.174Z,60.51
2022-10-24T07:26:15.078Z,60.30
2022-10-24T07:28:46.865Z,60.56
2022-10-24T07:31:19.498Z,60.67
2022-10-24T07:33:47.984Z,60.75
2022-10-24T07:36:20.121Z,60.66
2022-10-24T07:38:57.072Z,60.63
2022-10-24T07:41:31.910Z,60.51
2022-10-24T07:44:02.371Z,60.92
2022-10-24T07:46:40.168Z,60.58
2022-10-24T07:49:09.667Z,60.90
2022-10-24T07:51:40.077Z,60.76
2022-10-24T07:54:08.541Z,60.57
2022-10-24T07:56:38.998Z,60.29
2022-10-24T07:59:09.542Z,60.26
2022-10-24T08:01:42.891Z,60.28
2022-10-24T08:04:13.528Z,60.52
2022-10-24T08:06:43.051Z,60.44
2022-10-24T08:09:11.475Z,60.52
2022-10-24T08:11:44.815Z,61.15
2022-10-24T08:14:17.974Z,60.56
2022-10-24T08:16:46.586Z,60.66
2022-10-24T08:19:15.463Z,60.60
2022-10-24T08:21:44.159Z,60.70
2022-10-24T08:24:12.805Z,60.71
2022-10-24T08:26:42.653Z,60.72
2022-10-24T08:29:12.264Z,61.08
2022-10-24T08:31:41.137Z,60.84
2022-10-24T08:34:10.075Z,60.54
2022-10-24T08:36:40.859Z,60.43
2022-10-24T08:39:10.933Z,60.44
2022-10-24T08:44:49.295Z,60.42
2022-10-24T08:50:26.248Z,60.12
2022-10-24T08:53:07.677Z,60.02
2022-10-24T08:55:49.132Z,60.45
2022-10-24T08:58:54.888Z,60.36
2022-10-24T09:01:31.689Z,60.33
2022-10-24T09:04:04.844Z,59.93
2022-10-24T09:06:37.738Z,60.10
2022-10-24T09:09:19.039Z,59.92
2022-10-24T09:12:13.037Z,60.27
2022-10-24T09:40:34.056Z,59.58
2022-10-24T09:43:22.033Z,59.25
2022-10-24T09:45:53.464Z,58.96
2022-10-24T09:51:16.837Z,59.11
2022-10-24T09:56:54.437Z,60.51
2022-10-24T09:59:49.728Z,60.99
2022-10-24T10:13:00.386Z,62.30
2022-10-24T10:15:53.224Z,62.39
2022-10-24T10:18:46.574Z,62.89
2022-10-24T10:21:21.694Z,62.83
2022-10-24T10:24:06.832Z,62.75
2022-10-24T10:27:06.287Z,62.63
2022-10-24T10:29:39.988Z,62.96
2022-10-24T10:32:19.892Z,62.64
2022-10-24T10:35:27.819Z,62.89
2022-10-24T10:41:44.234Z,63.54
2022-10-24T10:48:51.645Z,63.49
2022-10-24T10:52:31.753Z,62.61
2022-10-24T11:04:38.834Z,61.79
2022-10-24T11:10:29.793Z,61.34
2022-10-24T11:13:18.524Z,62.03
2022-10-24T11:15:58.530Z,62.80
2022-10-24T11:18:35.329Z,62.80
2022-10-24T11:21:11.346Z,62.63
2022-10-24T11:26:40.844Z,63.01
2022-10-24T11:29:16.746Z,62.86
2022-10-24T11:35:00.907Z,62.36
2022-10-24T11:37:56.625Z,61.97
2022-10-24T11:55:05.869Z,61.41
2022-10-24T11:57:45.512Z,61.10
2022-10-24T12:03:58.917Z,61.03
2022-10-24T12:06:45.978Z,61.35
2022-10-24T12:13:30.156Z,61.14
2022-10-24T12:16:14.996Z,61.04
2022-10-24T12:18:49.431Z,60.96
2022-10-24T12:24:59.584Z,61.42
2022-10-24T12:27:38.325Z,60.65
2022-10-24T12:30:21.987Z,60.75
2022-10-24T12:32:59.469Z,60.81
2022-10-24T13:40:03.904Z,56.43
2022-10-24T13:45:50.263Z,56.90
2022-10-24T13:48:24.240Z,55.73
2022-10-24T16:03:31.034Z,55.24
2022-10-24T16:10:10.184Z,56.41
2022-10-24T16:12:45.903Z,56.31
2022-10-24T16:47:08.257Z,55.47
2022-10-24T16:50:03.369Z,55.14
2022-10-24T16:55:47.619Z,55.31
2022-10-24T16:58:17.359Z,55.70
2022-10-24T17:00:48.208Z,56.14
2022-10-24T17:03:16.620Z,56.76
2022-10-24T17:05:49.366Z,57.03
2022-10-24T17:08:17.854Z,57.39
2022-10-24T17:10:54.714Z,57.95
2022-10-24T17:13:28.937Z,58.17
2022-10-24T17:16:17.990Z,58.01
2022-10-24T17:19:15.121Z,58.16
2022-10-24T17:21:52.292Z,58.50
2022-10-24T17:24:24.624Z,58.82
2022-10-24T17:26:54.654Z,58.56
2022-10-24T17:29:37.380Z,58.78
2022-10-24T17:32:08.297Z,58.92
2022-10-24T17:34:39.862Z,59.19
2022-10-24T17:45:55.466Z,59.29
2022-10-24T17:51:22.006Z,59.11
2022-10-24T18:00:39.716Z,59.13
2022-10-24T18:03:34.312Z,59.04
2022-10-24T18:09:38.134Z,58.71
2022-10-24T18:12:11.805Z,58.67
2022-10-24T18:14:43.904Z,58.66
2022-10-24T18:17:15.559Z,58.60
2022-10-24T18:19:50.609Z,58.78
2022-10-24T18:22:24.023Z,58.46
2022-10-24T18:24:53.387Z,58.58
2022-10-24T18:27:22.064Z,58.47
2022-10-24T18:29:50.715Z,58.61
2022-10-24T18:32:20.557Z,58.57
2022-10-24T18:34:51.040Z,58.48
2022-10-24T18:37:21.609Z,58.33
2022-10-24T18:39:51.479Z,58.37
2022-10-24T18:42:27.290Z,58.49
2022-10-24T18:44:58.098Z,58.71
2022-10-24T18:47:28.408Z,58.60
2022-10-24T18:49:57.574Z,58.57
2022-10-24T18:52:43.340Z,58.54
2022-10-24T18:55:20.512Z,58.72
2022-10-24T19:01:05.887Z,58.89
2022-10-24T19:03:38.196Z,59.27
2022-10-24T19:06:23.210Z,58.95
2022-10-24T19:09:02.246Z,58.77
2022-10-24T19:11:33.345Z,58.76
2022-10-24T19:14:25.577Z,59.04
2022-10-24T19:17:19.283Z,58.96
2022-10-24T19:20:06.322Z,59.11
2022-10-24T19:26:08.191Z,58.99
2022-10-24T19:32:06.595Z,58.71
2022-10-24T19:34:35.078Z,58.52
2022-10-24T19:37:13.752Z,58.38
2022-10-24T19:39:42.515Z,58.49
2022-10-24T19:42:11.316Z,58.20
2022-10-24T20:41:41.681Z,58.47
2022-10-24T20:50:16.118Z,58.64
2022-10-24T20:53:01.639Z,58.52
2022-10-24T20:55:44.146Z,58.23
2022-10-24T20:58:19.507Z,58.48
2022-10-24T21:00:47.754Z,58.82
2022-10-24T21:03:21.449Z,58.82
2022-10-24T21:05:57.919Z,58.92
2022-10-24T21:08:28.315Z,58.84
2022-10-24T21:10:57.113Z,58.92
2022-10-24T21:13:26.171Z,58.86
2022-10-24T21:15:59.772Z,58.51
2022-10-24T21:18:32.398Z,58.87
2022-10-24T21:21:08.082Z,58.71
2022-10-24T21:23:37.715Z,59.08
2022-10-24T21:26:07.751Z,58.90
2022-10-24T21:28:37.332Z,58.87
2022-10-24T21:31:06.513Z,58.90
2022-10-24T21:33:35.354Z,59.00
2022-10-24T21:36:09.565Z,58.64
2022-10-24T21:38:40.411Z,58.72
2022-10-24T21:41:27.220Z,58.83
2022-10-24T21:43:59.843Z,59.08
2022-10-24T21:49:43.899Z,59.27
2022-10-24T21:52:17.231Z,59.37
2022-10-24T21:54:52.063Z,59.23
2022-10-24T21:57:21.527Z,58.93
2022-10-24T22:00:04.747Z,59.31
2022-10-24T22:02:47.851Z,59.20
2022-10-24T22:11:45.778Z,59.45
2022-10-24T22:14:21.800Z,59.31
2022-10-24T22:16:53.431Z,59.50
2022-10-24T22:19:22.013Z,59.35
2022-10-24T22:22:02.280Z,59.06
2022-10-24T22:24:39.568Z,59.40
2022-10-24T22:27:08.434Z,59.58
2022-10-24T22:36:27.826Z,59.71
2022-10-24T22:39:15.095Z,59.81
2022-10-24T22:42:03.089Z,59.51
2022-10-24T22:45:05.386Z,59.60
2022-10-24T22:47:47.015Z,59.45
2022-10-24T22:50:45.976Z,59.74
2022-10-24T22:53:19.307Z,59.73
2022-10-24T22:56:03.851Z,60.08
2022-10-24T22:58:47.793Z,59.85
2022-10-24T23:01:34.881Z,59.80
2022-10-24T23:04:21.959Z,59.88
2022-10-24T23:06:56.902Z,59.75
2022-10-24T23:09:25.351Z,59.85
2022-10-24T23:11:54.785Z,60.08
2022-10-24T23:14:30.155Z,60.10
2022-10-24T23:17:08.778Z,59.96
2022-10-24T23:19:52.325Z,59.93
2022-10-24T23:22:31.973Z,60.07
2022-10-24T23:25:04.507Z,60.27
2022-10-24T23:27:39.088Z,60.55
2022-10-24T23:30:23.446Z,60.21
2022-10-24T23:32:53.059Z,60.62
2022-10-24T23:35:34.278Z,60.01
2022-10-24T23:38:06.212Z,59.92
2022-10-24T23:40:38.464Z,60.06
2022-10-24T23:43:07.108Z,59.89
2022-10-24T23:45:47.274Z,60.02
2022-10-24T23:51:46.165Z,60.21
2022-10-24T23:54:15.431Z,60.10
2022-10-24T23:56:44.470Z,60.23
2022-10-24T23:59:13.677Z,60.23
